This is the latest recevied weather packets stored in our database for station/object RV1CJ-14. If no packets are shown the sender has not sent any weather packets the latest 1 day(s).
| Time | Temp. | Humidity | Pressure | Rain* | Wind** | Luminosity | Snow |
|---|---|---|---|---|---|---|---|
| 1778040003 | 5.56° C | 86% | 1005.3 hPa | 0 mm | 0.45 m/s, 342° | 67 W/m² | - |
| 1778039403 | 5.56° C | 87% | 1005.2 hPa | 0 mm | 0.45 m/s, 342° | 69 W/m² | - |
| 1778038803 | 5.56° C | 87% | 1005 hPa | 0 mm | 0 m/s | 40 W/m² | - |
| 1778038203 | 5.56° C | 87% | 1004.8 hPa | 0 mm | 0.45 m/s, 342° | 37 W/m² | - |
| 1778037603 | 5.56° C | 86% | 1004.6 hPa | 0 mm | 0.45 m/s, 342° | 26 W/m² | - |
| 1778037003 | 5° C | 85% | 1004.4 hPa | 0 mm | 0.45 m/s, 342° | 16 W/m² | - |
| 1778036403 | 5° C | 85% | 1004.2 hPa | 0 mm | 0 m/s | 25 W/m² | - |
| 1778035803 | 5° C | 84% | 1004.3 hPa | 0 mm | 0 m/s | 33 W/m² | - |
| 1778035203 | 4.44° C | 83% | 1004.1 hPa | 0 mm | 0.45 m/s, 342° | 30 W/m² | - |
| 1778034603 | 4.44° C | 82% | 1004 hPa | 0 mm | 0 m/s | 16 W/m² | - |
| 1778034003 | 4.44° C | 82% | 1003.9 hPa | 0 mm | 0 m/s | 12 W/m² | - |
| 1778033403 | 4.44° C | 81% | 1003.8 hPa | 0 mm | 0.45 m/s, 342° | 7 W/m² | - |
| 1778032803 | 4.44° C | 81% | 1003.7 hPa | 0 mm | 0 m/s | 5 W/m² | - |
| 1778032203 | 4.44° C | 80% | 1003.6 hPa | 0 mm | 0 m/s | 0 W/m² | - |
| 1778031603 | 4.44° C | 79% | 1003.6 hPa | 0 mm | 0 m/s | 0 W/m² | - |
| 1778031003 | 4.44° C | 79% | 1003.5 hPa | 0 mm | 0 m/s | 0 W/m² | - |
| 1778030403 | 4.44° C | 78% | 1003.4 hPa | 0 mm | 0 m/s | 0 W/m² | - |
| 1778029803 | 4.44° C | 78% | 1003.4 hPa | 0 mm | 0 m/s | 0 W/m² | - |
| 1778029203 | 5° C | 77% | 1003.4 hPa | 0 mm | 0.45 m/s, 342° | 0 W/m² | - |
| 1778028603 | 5° C | 77% | 1003.3 hPa | 0 mm | 0 m/s | 0 W/m² | - |
| 1778028003 | 5° C | 76% | 1003.3 hPa | 0 mm | 0 m/s | 0 W/m² | - |
| 1778027403 | 5° C | 75% | 1003.3 hPa | 0 mm | 0.45 m/s, 342° | 0 W/m² | - |
| 1778026803 | 5.56° C | 75% | 1003.2 hPa | 0 mm | 0 m/s | 0 W/m² | - |
| 1778026203 | 5.56° C | 74% | 1003.1 hPa | 0 mm | 0.45 m/s, 342° | 0 W/m² | - |
| 1778025603 | 5.56° C | 74% | 1003 hPa | 0 mm | 0.45 m/s, 342° | 0 W/m² | - |
* Rain latest hour (hover to see other rain measurements)
** Current wind speed in m/s (hover to see current wind gust speed)